createdAt,value
2022-11-29T00:00:02.730Z,49.75
2022-11-29T00:05:07.778Z,54.08
2022-11-29T00:10:10.423Z,57.70
2022-11-29T00:15:12.834Z,60.60
2022-11-29T00:20:16.623Z,79.20
2022-11-29T00:25:18.999Z,67.43
2022-11-29T00:30:21.780Z,81.88
2022-11-29T00:35:25.442Z,94.07
2022-11-29T00:40:27.874Z,103.40
2022-11-29T00:45:30.282Z,105.35
2022-11-29T00:50:33.968Z,100.68
2022-11-29T00:55:36.342Z,117.75
2022-11-29T01:00:38.716Z,113.97
2022-11-29T01:05:42.875Z,101.93
2022-11-29T01:10:45.653Z,92.97
2022-11-29T01:15:55.790Z,109.93
2022-11-29T01:21:00.726Z,102.78
2022-11-29T01:26:04.407Z,106.07
2022-11-29T01:31:07.454Z,97.88
2022-11-29T01:36:13.477Z,101.60
2022-11-29T01:41:16.787Z,86.25
2022-11-29T01:46:19.173Z,76.63
2022-11-29T01:51:23.116Z,107.75
2022-11-29T01:56:25.730Z,92.50
2022-11-29T02:01:28.190Z,95.40
2022-11-29T02:06:32.021Z,80.57
2022-11-29T02:11:49.119Z,83.30
2022-11-29T02:16:56.688Z,67.18
2022-11-29T02:22:03.620Z,54.58
2022-11-29T02:27:17.751Z,56.70
2022-11-29T02:32:40.996Z,61.55
2022-11-29T02:37:57.775Z,68.40
2022-11-29T02:43:13.072Z,55.55
2022-11-29T02:48:30.683Z,53.83
2022-11-29T02:53:36.434Z,56.65
2022-11-29T02:58:42.831Z,55.88
2022-11-29T03:03:47.492Z,53.40
2022-11-29T03:08:55.204Z,63.25
2022-11-29T03:14:04.802Z,60.10
2022-11-29T03:19:20.623Z,65.78
2022-11-29T03:24:29.749Z,62.33
2022-11-29T03:29:37.279Z,56.13
2022-11-29T03:34:51.762Z,67.47
2022-11-29T03:40:03.282Z,66.03
2022-11-29T03:45:08.660Z,61.25
2022-11-29T03:50:14.100Z,51.42
2022-11-29T03:55:25.840Z,49.28
2022-11-29T04:00:33.711Z,46.63
2022-11-29T04:05:53.687Z,55.42
2022-11-29T04:11:17.883Z,57.08
2022-11-29T04:16:26.273Z,53.90
2022-11-29T04:21:32.930Z,58.67
2022-11-29T04:26:42.790Z,59.88
2022-11-29T04:31:55.597Z,63.70
2022-11-29T04:37:09.799Z,60.47
2022-11-29T04:42:24.418Z,65.72
2022-11-29T04:47:40.071Z,66.88
2022-11-29T04:52:57.552Z,73.15
2022-11-29T04:58:05.789Z,56.33
2022-11-29T05:03:12.067Z,53.95
2022-11-29T05:08:20.799Z,51.58
2022-11-29T05:13:29.005Z,65.43
2022-11-29T05:18:40.572Z,52.92
2022-11-29T05:23:49.677Z,54.63
2022-11-29T05:28:57.654Z,60.45
2022-11-29T05:34:14.965Z,48.33
2022-11-29T05:39:27.703Z,52.03
2022-11-29T05:44:34.533Z,52.75
2022-11-29T05:49:40.136Z,50.95
2022-11-29T05:54:45.746Z,64.10
2022-11-29T05:59:50.692Z,38.38
2022-11-29T06:05:00.797Z,50.35
2022-11-29T06:10:05.414Z,55.05
2022-11-29T06:15:28.947Z,51.03
2022-11-29T06:20:38.397Z,54.45
2022-11-29T06:25:47.361Z,55.67
2022-11-29T06:30:56.557Z,59.05
2022-11-29T06:36:08.512Z,64.88
2022-11-29T06:41:14.767Z,61.25
2022-11-29T06:46:24.124Z,47.20
2022-11-29T06:51:29.833Z,48.10
2022-11-29T06:56:40.725Z,55.22
2022-11-29T07:01:46.912Z,52.15
2022-11-29T07:06:50.635Z,56.72
2022-11-29T07:11:53.330Z,56.63
2022-11-29T07:17:01.945Z,62.57
2022-11-29T07:22:09.813Z,54.67
2022-11-29T07:27:16.703Z,57.42
2022-11-29T07:32:23.641Z,53.08
2022-11-29T07:37:37.778Z,59.72
2022-11-29T07:42:44.672Z,60.58
2022-11-29T07:47:48.787Z,62.55
2022-11-29T07:52:51.168Z,66.55
2022-11-29T07:57:53.881Z,56.42
2022-11-29T08:02:57.604Z,67.23
2022-11-29T08:08:00.332Z,53.95
2022-11-29T08:13:02.701Z,52.90
2022-11-29T08:18:06.512Z,70.05
2022-11-29T08:23:09.855Z,52.00
2022-11-29T08:28:12.200Z,52.00
2022-11-29T08:33:15.909Z,59.90
2022-11-29T08:38:18.278Z,65.05
2022-11-29T08:43:20.650Z,66.22
2022-11-29T08:48:24.572Z,54.88
2022-11-29T08:53:51.470Z,69.13
2022-11-29T08:58:53.817Z,60.03
2022-11-29T09:04:02.478Z,48.55
2022-11-29T09:09:05.140Z,53.67
2022-11-29T09:14:15.752Z,56.50
2022-11-29T09:19:19.627Z,54.47
2022-11-29T09:24:22.002Z,58.38
2022-11-29T09:29:24.399Z,54.03
2022-11-29T09:34:28.486Z,57.47
2022-11-29T09:39:30.874Z,61.38
2022-11-29T09:44:39.555Z,56.13
2022-11-29T09:49:56.171Z,47.30
2022-11-29T09:55:03.980Z,40.25
2022-11-29T10:00:07.792Z,37.53
2022-11-29T10:05:16.210Z,38.97
2022-11-29T10:10:22.041Z,38.05
2022-11-29T10:15:27.286Z,32.55
2022-11-29T10:20:37.959Z,30.50
2022-11-29T10:25:45.287Z,26.80
2022-11-29T10:30:48.185Z,26.33
2022-11-29T10:35:53.930Z,26.27
2022-11-29T10:40:58.914Z,26.50
2022-11-29T10:46:02.452Z,28.45
2022-11-29T10:51:15.739Z,27.40
2022-11-29T10:56:22.285Z,29.57
2022-11-29T11:01:26.061Z,27.52
2022-11-29T11:06:43.094Z,27.67
2022-11-29T11:11:50.929Z,28.95
2022-11-29T11:16:53.946Z,30.52
2022-11-29T11:21:58.367Z,26.65
2022-11-29T11:27:01.331Z,24.73
2022-11-29T11:32:04.061Z,23.95
2022-11-29T11:37:19.023Z,24.43
2022-11-29T11:42:42.596Z,24.30
2022-11-29T11:47:46.116Z,22.30
2022-11-29T11:58:03.334Z,21.05
2022-11-29T12:03:21.057Z,18.95
2022-11-29T12:08:24.921Z,19.20
2022-11-29T12:13:31.353Z,18.75
2022-11-29T12:18:37.904Z,17.73
2022-11-29T12:23:41.443Z,21.30
2022-11-29T12:28:45.842Z,18.13
2022-11-29T12:33:50.789Z,17.88
2022-11-29T12:39:00.512Z,19.67
2022-11-29T12:44:08.647Z,18.55
2022-11-29T12:49:18.189Z,19.15
2022-11-29T12:54:38.512Z,19.88
2022-11-29T12:59:49.937Z,18.75
2022-11-29T13:04:59.736Z,17.50
2022-11-29T13:10:12.493Z,13.90
2022-11-29T13:15:20.193Z,14.90
2022-11-29T13:20:27.550Z,12.57
2022-11-29T13:25:31.326Z,12.23
2022-11-29T13:30:36.561Z,12.98
2022-11-29T13:35:43.054Z,12.90
2022-11-29T13:40:52.492Z,13.98
2022-11-29T13:46:00.531Z,14.20
2022-11-29T13:51:22.980Z,13.45
2022-11-29T13:56:49.239Z,13.75
2022-11-29T14:01:54.760Z,15.35
2022-11-29T14:07:04.807Z,16.10
2022-11-29T14:12:18.758Z,16.13
2022-11-29T14:22:24.786Z,15.40
2022-11-29T14:27:46.032Z,15.88
2022-11-29T14:32:52.871Z,16.92
2022-11-29T14:38:02.478Z,17.23
2022-11-29T14:43:15.675Z,17.45
2022-11-29T14:48:26.397Z,15.90
2022-11-29T14:53:33.740Z,20.38
2022-11-29T14:58:36.143Z,17.73
2022-11-29T15:03:43.022Z,20.15
2022-11-29T15:08:51.859Z,18.50
2022-11-29T15:13:56.013Z,18.00
2022-11-29T15:19:08.092Z,21.38
2022-11-29T15:24:13.416Z,20.38
2022-11-29T15:29:17.016Z,18.35
2022-11-29T15:34:20.677Z,27.70
2022-11-29T15:39:28.733Z,33.58
2022-11-29T15:44:32.836Z,18.58
2022-11-29T15:49:35.178Z,18.38
2022-11-29T15:54:40.884Z,18.80
2022-11-29T15:59:44.803Z,22.55
2022-11-29T16:04:47.750Z,25.40
2022-11-29T16:09:55.048Z,28.67
2022-11-29T16:14:58.391Z,33.20
2022-11-29T16:20:23.392Z,27.88
2022-11-29T16:25:27.457Z,26.58
2022-11-29T16:30:31.011Z,35.83
2022-11-29T16:35:33.918Z,26.45
2022-11-29T16:40:37.931Z,28.02
2022-11-29T16:45:41.232Z,28.50
2022-11-29T16:50:43.660Z,39.80
2022-11-29T16:55:47.348Z,35.78
2022-11-29T17:00:49.795Z,31.65
2022-11-29T17:05:52.180Z,30.63
2022-11-29T17:10:55.958Z,29.02
2022-11-29T17:15:58.403Z,30.88
2022-11-29T17:21:00.812Z,35.80
2022-11-29T17:26:04.611Z,34.15
2022-11-29T17:31:08.950Z,30.98
2022-11-29T17:36:12.570Z,35.42
2022-11-29T17:41:18.102Z,32.55
2022-11-29T17:46:21.645Z,36.28
2022-11-29T17:56:48.649Z,36.92
2022-11-29T18:01:51.093Z,40.08
2022-11-29T18:06:53.493Z,42.65
2022-11-29T18:11:57.188Z,52.05
2022-11-29T18:16:59.621Z,56.40
2022-11-29T18:22:05.760Z,48.65
2022-11-29T18:27:09.518Z,46.15
2022-11-29T18:32:11.905Z,47.72
2022-11-29T18:37:23.370Z,52.03
2022-11-29T18:42:38.755Z,55.03
2022-11-29T18:47:41.122Z,51.42
2022-11-29T18:52:43.469Z,56.17
2022-11-29T18:57:50.163Z,65.22
2022-11-29T19:02:53.978Z,65.20
2022-11-29T19:07:56.442Z,55.83
2022-11-29T19:13:00.427Z,65.03
2022-11-29T19:18:03.875Z,53.08
2022-11-29T19:28:14.005Z,41.30
2022-11-29T19:33:16.766Z,30.52
2022-11-29T19:38:19.153Z,31.85
2022-11-29T19:43:22.866Z,33.10
2022-11-29T19:48:25.370Z,27.08
2022-11-29T19:53:28.108Z,25.95
2022-11-29T19:58:32.824Z,25.97
2022-11-29T20:03:35.602Z,23.13
2022-11-29T20:08:38.044Z,26.37
2022-11-29T20:13:43.016Z,24.02
2022-11-29T20:18:50.727Z,24.63
2022-11-29T20:23:55.851Z,24.35
2022-11-29T20:28:59.852Z,23.05
2022-11-29T20:34:03.705Z,24.08
2022-11-29T20:39:11.565Z,22.38
2022-11-29T20:44:34.347Z,21.25
2022-11-29T20:49:38.398Z,23.58
2022-11-29T20:54:40.786Z,26.02
2022-11-29T20:59:43.216Z,25.40
2022-11-29T21:04:47.371Z,24.50
2022-11-29T21:09:50.001Z,24.98
2022-11-29T21:14:52.812Z,24.58
2022-11-29T21:19:56.870Z,23.10
2022-11-29T21:25:05.085Z,24.70
2022-11-29T21:30:14.210Z,24.98
2022-11-29T21:35:18.339Z,24.95
2022-11-29T21:40:20.921Z,24.52
2022-11-29T21:45:23.264Z,23.03
2022-11-29T21:50:27.240Z,24.05
2022-11-29T21:55:32.139Z,25.25
2022-11-29T22:00:37.570Z,24.15
2022-11-29T22:05:41.770Z,26.70
2022-11-29T22:10:44.154Z,27.98
2022-11-29T22:15:46.560Z,25.48
2022-11-29T22:20:50.322Z,25.83
2022-11-29T22:25:52.720Z,26.67
2022-11-29T22:31:01.892Z,26.85
2022-11-29T22:36:06.864Z,27.05
2022-11-29T22:41:10.756Z,28.58
2022-11-29T22:46:14.268Z,28.42
2022-11-29T22:51:18.825Z,28.95
2022-11-29T22:56:22.008Z,26.73
2022-11-29T23:01:25.898Z,26.27
2022-11-29T23:06:31.092Z,28.67
2022-11-29T23:11:33.484Z,29.80
2022-11-29T23:16:35.952Z,27.58
2022-11-29T23:21:40.622Z,29.92
2022-11-29T23:26:44.553Z,28.88
2022-11-29T23:31:47.531Z,30.75
2022-11-29T23:36:53.067Z,29.70
2022-11-29T23:41:55.778Z,30.90
2022-11-29T23:46:58.153Z,31.33
2022-11-29T23:52:01.861Z,30.90
2022-11-29T23:57:04.199Z,32.05
